Time;durP1;ratioP1;P1;durP2;ratioP2;P2;SDS_P1;SDS_P2;PMS_P1;PMS_P2;Temp;Humidity;BMP_temperature;BMP_pressure;BME280_temperature;BME280_humidity;BME280_pressure;Samples;Min_cycle;Max_cycle;Signal;HPM_P1;HPM_P2
2022/01/04 00:00:15;;;;;;;2.25;1.00;;;;;;;;;;4975089;28;20033;-79
2022/01/04 00:02:41;;;;;;;1.25;0.98;;;;;;;;;;4961335;28;20035;-79
2022/01/04 00:05:06;;;;;;;1.48;1.13;;;;;;;;;;4974522;28;20033;-79
2022/01/04 00:07:32;;;;;;;1.60;0.98;;;;;;;;;;4977793;28;20046;-79
2022/01/04 00:09:57;;;;;;;1.13;0.88;;;;;;;;;;4992008;28;20038;-79
2022/01/04 00:15:07;;;;;;;1.00;0.90;;;;;;;;;;4975496;28;20061;-79
2022/01/04 00:17:32;;;;;;;2.15;0.80;;;;;;;;;;4992540;28;20745;-79
2022/01/04 00:19:57;;;;;;;2.45;1.17;;;;;;;;;;4960115;28;20426;-79
2022/01/04 00:22:23;;;;;;;1.02;0.90;;;;;;;;;;4992666;28;20373;-79
2022/01/04 00:24:48;;;;;;;1.00;0.90;;;;;;;;;;4976682;28;20045;-78
2022/01/04 00:27:13;;;;;;;1.60;0.80;;;;;;;;;;4975367;28;20070;-79
2022/01/04 00:29:39;;;;;;;1.80;0.85;;;;;;;;;;4991766;28;20076;-79
2022/01/04 00:32:05;;;;;;;3.55;0.90;;;;;;;;;;4991483;28;20058;-79
2022/01/04 00:34:30;;;;;;;0.90;0.90;;;;;;;;;;4977816;28;20039;-78
2022/01/04 00:36:55;;;;;;;2.30;0.77;;;;;;;;;;4975158;28;20033;-79
2022/01/04 00:39:20;;;;;;;1.15;1.05;;;;;;;;;;4989867;28;20125;-79
2022/01/04 00:41:46;;;;;;;2.97;1.45;;;;;;;;;;4978259;28;20026;-79
2022/01/04 00:44:11;;;;;;;0.90;0.80;;;;;;;;;;4978163;28;20018;-79
2022/01/04 00:46:36;;;;;;;2.20;0.90;;;;;;;;;;4977665;28;20026;-79
2022/01/04 00:49:11;;;;;;;1.40;1.30;;;;;;;;;;4975858;28;20023;-79
2022/01/04 00:51:38;;;;;;;1.17;0.80;;;;;;;;;;4976194;28;20042;-79
2022/01/04 00:54:04;;;;;;;0.70;0.70;;;;;;;;;;4975566;28;20486;-79
2022/01/04 00:56:29;;;;;;;1.40;1.00;;;;;;;;;;4974231;28;20049;-79
2022/01/04 00:58:54;;;;;;;0.98;0.90;;;;;;;;;;4989510;28;20613;-79
2022/01/04 01:01:20;;;;;;;1.42;0.75;;;;;;;;;;4989155;28;20042;-79
2022/01/04 01:03:45;;;;;;;1.00;0.80;;;;;;;;;;4976062;28;20037;-79
2022/01/04 01:06:11;;;;;;;0.95;0.90;;;;;;;;;;4975236;28;20030;-79
2022/01/04 01:08:36;;;;;;;1.13;0.80;;;;;;;;;;4991968;28;20126;-79
2022/01/04 01:11:01;;;;;;;0.80;0.80;;;;;;;;;;4974380;28;20027;-79
2022/01/04 01:13:27;;;;;;;1.65;1.02;;;;;;;;;;4974918;28;20041;-79
2022/01/04 01:15:52;;;;;;;0.88;0.88;;;;;;;;;;4990672;28;20514;-79
2022/01/04 01:18:17;;;;;;;1.38;1.05;;;;;;;;;;4991209;28;20670;-79
2022/01/04 01:20:45;;;;;;;1.10;0.90;;;;;;;;;;4975714;28;20421;-79
2022/01/04 01:23:10;;;;;;;1.35;0.80;;;;;;;;;;4945751;28;20018;-79
2022/01/04 01:25:36;;;;;;;2.28;0.88;;;;;;;;;;4975212;28;20045;-79
2022/01/04 01:28:01;;;;;;;1.25;0.95;;;;;;;;;;4991927;28;20031;-79
2022/01/04 01:30:28;;;;;;;2.33;1.00;;;;;;;;;;4988931;28;20108;-79
2022/01/04 01:32:53;;;;;;;0.80;0.80;;;;;;;;;;4960702;28;20549;-79
2022/01/04 01:35:19;;;;;;;2.15;1.50;;;;;;;;;;4976142;28;20030;-78
2022/01/04 01:37:44;;;;;;;1.13;0.90;;;;;;;;;;4975649;28;20093;-79
2022/01/04 01:40:10;;;;;;;0.98;0.75;;;;;;;;;;4974972;28;20036;-79
2022/01/04 01:42:35;;;;;;;0.73;0.73;;;;;;;;;;4975639;28;20030;-79
2022/01/04 01:45:00;;;;;;;1.10;1.00;;;;;;;;;;4958263;28;20058;-79
2022/01/04 01:47:26;;;;;;;1.60;0.90;;;;;;;;;;4974609;28;20415;-79
2022/01/04 01:49:51;;;;;;;1.25;0.82;;;;;;;;;;4974459;28;20520;-79
2022/01/04 01:52:17;;;;;;;3.80;1.13;;;;;;;;;;4990774;28;20490;-79
2022/01/04 01:54:42;;;;;;;1.35;0.85;;;;;;;;;;4979327;28;20037;-79
2022/01/04 01:57:07;;;;;;;1.35;0.90;;;;;;;;;;4979788;28;20026;-79
2022/01/04 01:59:33;;;;;;;2.55;0.95;;;;;;;;;;4995229;28;20041;-79
2022/01/04 02:01:58;;;;;;;0.90;0.90;;;;;;;;;;4993223;28;20039;-79
2022/01/04 02:04:23;;;;;;;1.00;0.90;;;;;;;;;;4980154;28;20034;-79
2022/01/04 02:06:50;;;;;;;1.00;0.90;;;;;;;;;;4980086;28;20416;-79
2022/01/04 02:09:15;;;;;;;2.08;1.00;;;;;;;;;;4978665;28;20030;-79
2022/01/04 02:11:41;;;;;;;0.90;0.90;;;;;;;;;;4978913;28;20397;-79
2022/01/04 02:14:06;;;;;;;1.40;1.10;;;;;;;;;;4979184;28;20404;-79
2022/01/04 02:16:31;;;;;;;1.20;0.98;;;;;;;;;;4983955;28;20034;-79
2022/01/04 02:19:00;;;;;;;1.73;0.85;;;;;;;;;;4994908;28;20026;-79
2022/01/04 02:21:26;;;;;;;0.93;0.93;;;;;;;;;;4949807;28;20023;-79
2022/01/04 02:23:51;;;;;;;0.90;0.90;;;;;;;;;;4993628;28;20126;-79
2022/01/04 02:26:16;;;;;;;1.80;0.95;;;;;;;;;;4994195;28;20035;-79
2022/01/04 02:28:42;;;;;;;1.92;0.80;;;;;;;;;;4993990;28;20023;-79
2022/01/04 02:31:08;;;;;;;2.92;1.15;;;;;;;;;;4992963;28;20057;-79
2022/01/04 02:33:33;;;;;;;1.23;1.05;;;;;;;;;;4976554;28;20034;-79
2022/01/04 02:35:58;;;;;;;0.90;0.90;;;;;;;;;;4977351;28;20037;-79
2022/01/04 02:38:23;;;;;;;1.40;1.30;;;;;;;;;;4976692;28;20034;-79
2022/01/04 02:40:49;;;;;;;1.75;0.98;;;;;;;;;;4963361;28;20029;-79
2022/01/04 02:43:14;;;;;;;1.38;1.10;;;;;;;;;;4976699;28;20018;-79
2022/01/04 02:45:39;;;;;;;1.52;0.88;;;;;;;;;;4976966;28;20674;-79
2022/01/04 02:48:05;;;;;;;1.33;0.90;;;;;;;;;;4994090;28;20501;-79
2022/01/04 02:50:30;;;;;;;0.88;0.80;;;;;;;;;;4989376;28;20027;-79
2022/01/04 02:52:55;;;;;;;0.88;0.80;;;;;;;;;;4975738;28;20284;-79
2022/01/04 02:55:21;;;;;;;2.13;1.13;;;;;;;;;;4974192;28;20432;-79
2022/01/04 02:57:46;;;;;;;1.25;0.90;;;;;;;;;;4974741;28;20429;-79
2022/01/04 03:00:13;;;;;;;0.90;0.90;;;;;;;;;;4960571;28;20117;-79
2022/01/04 03:02:38;;;;;;;2.60;1.00;;;;;;;;;;4976358;28;20031;-79
2022/01/04 03:05:04;;;;;;;2.50;1.10;;;;;;;;;;4975243;28;20124;-79
2022/01/04 03:07:29;;;;;;;1.80;1.00;;;;;;;;;;4975450;28;20062;-79
2022/01/04 03:09:55;;;;;;;1.20;1.02;;;;;;;;;;4977276;28;20084;-79
2022/01/04 03:12:21;;;;;;;0.93;0.93;;;;;;;;;;4978031;28;20030;-80
2022/01/04 03:14:46;;;;;;;2.15;1.00;;;;;;;;;;4965786;28;20050;-79
2022/01/04 03:17:12;;;;;;;1.58;1.00;;;;;;;;;;4974401;28;20532;-79
2022/01/04 03:19:37;;;;;;;1.00;1.00;;;;;;;;;;4992486;28;20033;-79
2022/01/04 03:22:03;;;;;;;1.55;0.90;;;;;;;;;;4975063;28;20472;-79
2022/01/04 03:24:28;;;;;;;1.30;1.00;;;;;;;;;;4973910;28;20041;-79
2022/01/04 03:26:53;;;;;;;0.93;0.93;;;;;;;;;;4974405;28;20899;-79
2022/01/04 03:29:19;;;;;;;0.80;0.80;;;;;;;;;;4976783;28;20085;-79
2022/01/04 03:31:44;;;;;;;1.60;0.82;;;;;;;;;;4974943;28;20046;-79
2022/01/04 03:34:10;;;;;;;2.80;1.00;;;;;;;;;;4991583;28;20038;-79
2022/01/04 03:36:35;;;;;;;1.10;1.00;;;;;;;;;;4974145;28;20081;-79
2022/01/04 03:39:04;;;;;;;2.28;1.00;;;;;;;;;;4993124;28;20102;-79
2022/01/04 03:41:29;;;;;;;1.67;0.93;;;;;;;;;;4978065;28;20033;-79
2022/01/04 03:43:55;;;;;;;0.90;0.90;;;;;;;;;;4991235;28;20031;-79
2022/01/04 03:46:20;;;;;;;1.25;0.98;;;;;;;;;;4974352;28;20026;-79
2022/01/04 03:48:45;;;;;;;1.10;0.85;;;;;;;;;;4993061;28;20434;-79
2022/01/04 03:51:11;;;;;;;1.00;1.00;;;;;;;;;;4991172;28;20548;-79
2022/01/04 03:53:36;;;;;;;2.05;0.90;;;;;;;;;;4974469;28;20065;-80
2022/01/04 03:56:02;;;;;;;1.85;1.00;;;;;;;;;;4973978;28;20076;-80
2022/01/04 03:58:27;;;;;;;2.95;0.90;;;;;;;;;;4991660;28;20477;-79
2022/01/04 04:00:53;;;;;;;0.80;0.70;;;;;;;;;;4973999;28;20509;-79
2022/01/04 04:03:18;;;;;;;0.77;0.70;;;;;;;;;;4962314;28;20041;-79
2022/01/04 04:05:43;;;;;;;0.90;0.90;;;;;;;;;;4974615;28;20042;-79
2022/01/04 04:08:09;;;;;;;2.70;0.70;;;;;;;;;;4974427;28;20046;-79
2022/01/04 04:10:34;;;;;;;1.20;0.73;;;;;;;;;;4974189;28;20125;-79
2022/01/04 04:13:00;;;;;;;1.67;0.70;;;;;;;;;;4990798;28;20026;-79
2022/01/04 04:15:25;;;;;;;0.50;0.50;;;;;;;;;;4991237;28;20027;-79
2022/01/04 04:17:50;;;;;;;0.68;0.68;;;;;;;;;;4955951;28;20082;-79
2022/01/04 04:20:16;;;;;;;0.65;0.65;;;;;;;;;;4975575;28;20502;-79
2022/01/04 04:22:41;;;;;;;1.55;0.80;;;;;;;;;;4991400;28;20034;-79
2022/01/04 04:25:07;;;;;;;0.77;0.68;;;;;;;;;;4986941;28;20022;-79
2022/01/04 04:27:32;;;;;;;2.85;0.80;;;;;;;;;;4958151;28;20117;-79
2022/01/04 04:29:58;;;;;;;0.68;0.68;;;;;;;;;;4990560;28;20022;-79
2022/01/04 04:32:23;;;;;;;0.70;0.70;;;;;;;;;;4988808;28;20062;-79
2022/01/04 04:34:48;;;;;;;0.95;0.60;;;;;;;;;;4974601;28;20102;-80
2022/01/04 04:37:13;;;;;;;0.60;0.60;;;;;;;;;;4973004;28;20134;-80
2022/01/04 04:39:39;;;;;;;0.60;0.60;;;;;;;;;;4990683;28;20065;-80
2022/01/04 04:42:05;;;;;;;0.60;0.60;;;;;;;;;;4974812;28;20835;-80
2022/01/04 04:44:30;;;;;;;0.73;0.70;;;;;;;;;;4961123;28;20041;-80
2022/01/04 04:46:55;;;;;;;0.98;0.60;;;;;;;;;;4973557;28;20061;-80
2022/01/04 04:49:20;;;;;;;0.80;0.80;;;;;;;;;;4974157;28;20026;-80
2022/01/04 04:51:46;;;;;;;2.38;0.65;;;;;;;;;;4973169;28;20397;-80
2022/01/04 04:54:11;;;;;;;0.60;0.60;;;;;;;;;;4961587;28;20026;-80
2022/01/04 04:56:38;;;;;;;0.70;0.63;;;;;;;;;;4971264;28;20026;-80
2022/01/04 04:59:05;;;;;;;0.50;0.50;;;;;;;;;;4971949;28;20082;-80
2022/01/04 05:01:30;;;;;;;0.95;0.70;;;;;;;;;;4972101;28;20034;-80
2022/01/04 05:03:55;;;;;;;2.72;0.65;;;;;;;;;;4973397;28;20342;-80
2022/01/04 05:06:21;;;;;;;0.70;0.70;;;;;;;;;;4962799;28;20792;-80
2022/01/04 05:08:46;;;;;;;0.55;0.55;;;;;;;;;;4971512;28;20071;-80
2022/01/04 05:11:11;;;;;;;0.90;0.77;;;;;;;;;;4974587;28;20117;-80
2022/01/04 05:13:36;;;;;;;0.55;0.55;;;;;;;;;;4975292;28;20070;-80
2022/01/04 05:16:02;;;;;;;2.55;0.50;;;;;;;;;;4972905;28;20108;-80
2022/01/04 05:18:27;;;;;;;1.10;0.77;;;;;;;;;;4974599;28;20088;-80
2022/01/04 05:20:52;;;;;;;0.70;0.70;;;;;;;;;;4975045;28;20049;-80
2022/01/04 05:23:18;;;;;;;1.08;0.70;;;;;;;;;;4973542;28;20116;-80
2022/01/04 05:25:43;;;;;;;0.65;0.65;;;;;;;;;;4987251;28;20062;-80
2022/01/04 05:28:08;;;;;;;1.13;0.73;;;;;;;;;;4973694;28;20030;-80
2022/01/04 05:30:34;;;;;;;0.50;0.50;;;;;;;;;;4974074;28;20038;-80
2022/01/04 05:32:59;;;;;;;1.10;0.95;;;;;;;;;;4988196;28;20042;-80
2022/01/04 05:35:24;;;;;;;0.88;0.88;;;;;;;;;;4990103;28;20132;-80
2022/01/04 05:37:50;;;;;;;0.85;0.85;;;;;;;;;;4972822;28;20035;-80
2022/01/04 05:40:15;;;;;;;0.80;0.80;;;;;;;;;;4972821;28;20026;-80
2022/01/04 05:42:40;;;;;;;1.20;0.85;;;;;;;;;;4974275;28;20061;-80
2022/01/04 05:45:06;;;;;;;0.70;0.70;;;;;;;;;;4973938;28;20042;-80
2022/01/04 05:47:32;;;;;;;0.60;0.60;;;;;;;;;;4974606;28;20042;-80
2022/01/04 05:49:57;;;;;;;1.27;0.50;;;;;;;;;;4974757;28;20026;-80
2022/01/04 05:52:22;;;;;;;0.70;0.70;;;;;;;;;;4975970;28;20042;-80
2022/01/04 05:54:49;;;;;;;1.35;0.70;;;;;;;;;;4973700;28;20038;-80
2022/01/04 05:57:16;;;;;;;0.73;0.73;;;;;;;;;;4987638;28;20022;-80
2022/01/04 05:59:41;;;;;;;0.50;0.50;;;;;;;;;;4968788;28;20113;-80
2022/01/04 06:02:06;;;;;;;0.50;0.50;;;;;;;;;;4971590;28;20126;-80
2022/01/04 06:04:31;;;;;;;2.35;0.82;;;;;;;;;;4972689;28;20069;-80
2022/01/04 06:06:57;;;;;;;0.80;0.75;;;;;;;;;;4987015;28;20063;-80
2022/01/04 06:09:27;;;;;;;1.75;0.90;;;;;;;;;;4972902;28;20072;-80
2022/01/04 06:17:03;;;;;;;0.90;0.90;;;;;;;;;;4969510;28;20045;-80
2022/01/04 06:19:28;;;;;;;0.80;0.80;;;;;;;;;;4973406;28;20476;-80
2022/01/04 06:21:53;;;;;;;1.00;0.80;;;;;;;;;;4971924;28;20050;-80
2022/01/04 06:24:18;;;;;;;0.50;0.50;;;;;;;;;;4973200;28;20058;-80
2022/01/04 06:26:44;;;;;;;0.90;0.80;;;;;;;;;;4974725;28;20065;-80
2022/01/04 06:29:11;;;;;;;0.75;0.75;;;;;;;;;;4957356;28;20066;-79
2022/01/04 06:31:36;;;;;;;1.30;0.73;;;;;;;;;;4985472;28;20418;-80
2022/01/04 06:34:02;;;;;;;1.85;0.80;;;;;;;;;;4973993;28;20030;-79
2022/01/04 06:36:27;;;;;;;0.80;0.80;;;;;;;;;;4970177;28;20602;-79
2022/01/04 06:38:53;;;;;;;0.80;0.80;;;;;;;;;;4975952;28;20026;-79
2022/01/04 06:41:18;;;;;;;1.00;1.00;;;;;;;;;;4992477;28;20030;-79
2022/01/04 06:43:43;;;;;;;0.60;0.60;;;;;;;;;;4977764;28;20026;-79
2022/01/04 06:46:11;;;;;;;0.77;0.77;;;;;;;;;;4974391;28;20041;-79
2022/01/04 06:48:38;;;;;;;1.10;0.95;;;;;;;;;;4977079;28;20370;-79
2022/01/04 06:51:03;;;;;;;0.70;0.70;;;;;;;;;;4975616;28;20127;-79
2022/01/04 06:53:28;;;;;;;0.60;0.60;;;;;;;;;;4975541;28;20035;-79
2022/01/04 06:55:54;;;;;;;0.70;0.70;;;;;;;;;;4976481;28;20122;-79
2022/01/04 06:58:19;;;;;;;0.85;0.63;;;;;;;;;;4990716;28;20114;-79
2022/01/04 07:00:44;;;;;;;1.42;0.60;;;;;;;;;;4976025;28;20065;-79
2022/01/04 07:03:10;;;;;;;0.70;0.70;;;;;;;;;;4959378;28;20363;-80
2022/01/04 07:05:35;;;;;;;1.02;0.90;;;;;;;;;;4958411;28;20098;-79
2022/01/04 07:08:02;;;;;;;0.60;0.60;;;;;;;;;;4991062;28;20532;-80
2022/01/04 07:10:27;;;;;;;0.70;0.70;;;;;;;;;;4957819;28;20034;-79
2022/01/04 07:12:52;;;;;;;1.25;0.70;;;;;;;;;;4991630;28;20084;-80
2022/01/04 07:15:18;;;;;;;1.10;0.75;;;;;;;;;;4975994;28;20050;-80
2022/01/04 07:17:43;;;;;;;0.68;0.68;;;;;;;;;;4976688;28;20473;-80
2022/01/04 07:20:09;;;;;;;1.00;0.90;;;;;;;;;;4977489;28;20040;-80
2022/01/04 07:22:36;;;;;;;0.60;0.60;;;;;;;;;;4975089;28;20022;-80
2022/01/04 07:25:01;;;;;;;0.73;0.60;;;;;;;;;;4976809;28;20033;-80
2022/01/04 07:27:26;;;;;;;0.70;0.70;;;;;;;;;;4974973;28;20034;-79
2022/01/04 07:29:52;;;;;;;0.55;0.55;;;;;;;;;;4975758;28;20109;-79
2022/01/04 07:32:17;;;;;;;0.90;0.73;;;;;;;;;;4974007;28;20118;-79
2022/01/04 07:34:42;;;;;;;1.95;0.80;;;;;;;;;;4973507;28;20121;-79
2022/01/04 07:37:08;;;;;;;0.98;0.70;;;;;;;;;;4974911;28;20062;-79
2022/01/04 07:39:33;;;;;;;0.52;0.52;;;;;;;;;;4975115;28;20054;-79
2022/01/04 07:41:58;;;;;;;1.52;0.70;;;;;;;;;;4989471;28;20030;-79
2022/01/04 07:44:25;;;;;;;0.90;0.80;;;;;;;;;;4973614;28;20110;-79
2022/01/04 07:46:51;;;;;;;0.65;0.65;;;;;;;;;;4989465;28;20069;-79
2022/01/04 07:49:16;;;;;;;0.70;0.70;;;;;;;;;;4974507;28;20665;-79
2022/01/04 07:51:41;;;;;;;0.50;0.50;;;;;;;;;;4991521;28;20632;-79
2022/01/04 07:54:07;;;;;;;0.70;0.70;;;;;;;;;;4974813;28;20080;-79
2022/01/04 07:56:32;;;;;;;0.75;0.75;;;;;;;;;;4975024;28;20097;-79
2022/01/04 07:59:00;;;;;;;1.13;0.73;;;;;;;;;;4991840;28;20066;-79
2022/01/04 08:01:28;;;;;;;0.50;0.50;;;;;;;;;;4971121;28;20040;-79
2022/01/04 08:03:53;;;;;;;0.85;0.70;;;;;;;;;;4984653;28;20130;-79
2022/01/04 08:06:18;;;;;;;0.52;0.52;;;;;;;;;;4975377;28;20042;-79
2022/01/04 08:08:43;;;;;;;0.60;0.60;;;;;;;;;;4975583;28;20057;-79
2022/01/04 08:11:09;;;;;;;0.50;0.50;;;;;;;;;;4974534;28;20042;-79
2022/01/04 08:13:34;;;;;;;0.70;0.70;;;;;;;;;;4973914;28;20033;-79
2022/01/04 08:15:59;;;;;;;0.70;0.70;;;;;;;;;;4988896;28;20065;-79
2022/01/04 08:18:25;;;;;;;0.57;0.57;;;;;;;;;;4976114;28;20049;-79
2022/01/04 08:20:55;;;;;;;0.50;0.50;;;;;;;;;;4987452;28;20023;-79
2022/01/04 08:23:21;;;;;;;0.70;0.70;;;;;;;;;;4973640;28;20528;-79
2022/01/04 08:25:46;;;;;;;0.47;0.47;;;;;;;;;;4974728;28;20033;-79
2022/01/04 08:28:11;;;;;;;0.50;0.50;;;;;;;;;;4976002;28;20080;-79
2022/01/04 08:30:37;;;;;;;0.47;0.47;;;;;;;;;;4974697;28;20066;-79
2022/01/04 08:33:02;;;;;;;0.50;0.50;;;;;;;;;;4991086;28;20066;-79
2022/01/04 08:35:27;;;;;;;0.88;0.75;;;;;;;;;;4988687;28;20129;-79
2022/01/04 08:37:53;;;;;;;0.75;0.65;;;;;;;;;;4973193;28;20030;-79
2022/01/04 08:40:18;;;;;;;0.95;0.60;;;;;;;;;;4972989;28;20470;-79
2022/01/04 08:42:43;;;;;;;0.40;0.40;;;;;;;;;;4989599;28;20432;-80
2022/01/04 08:45:09;;;;;;;0.60;0.60;;;;;;;;;;4946555;28;20026;-80
2022/01/04 08:47:34;;;;;;;0.50;0.50;;;;;;;;;;4981551;28;20445;-79
2022/01/04 08:50:00;;;;;;;0.52;0.52;;;;;;;;;;4996277;28;20026;-79
2022/01/04 08:52:27;;;;;;;0.55;0.55;;;;;;;;;;4993181;28;20376;-79
2022/01/04 08:54:52;;;;;;;0.52;0.52;;;;;;;;;;4988517;28;20036;-80
2022/01/04 08:57:17;;;;;;;0.52;0.52;;;;;;;;;;4988578;28;20042;-79
2022/01/04 08:59:43;;;;;;;0.40;0.40;;;;;;;;;;4974469;28;20110;-79
2022/01/04 09:02:08;;;;;;;0.50;0.50;;;;;;;;;;4970806;28;20117;-80
2022/01/04 09:04:33;;;;;;;0.95;0.47;;;;;;;;;;4972979;28;20031;-79
2022/01/04 09:06:59;;;;;;;0.40;0.40;;;;;;;;;;4974258;28;20044;-79
2022/01/04 09:09:25;;;;;;;1.13;0.43;;;;;;;;;;4974752;28;20047;-79
2022/01/04 09:11:50;;;;;;;1.50;0.70;;;;;;;;;;4991273;28;20566;-79
2022/01/04 09:14:24;;;;;;;0.50;0.50;;;;;;;;;;4973696;28;20462;-79
2022/01/04 09:19:34;;;;;;;0.47;0.47;;;;;;;;;;4973895;28;20118;-79
2022/01/04 09:22:00;;;;;;;0.50;0.50;;;;;;;;;;4985027;28;20039;-79
2022/01/04 09:24:25;;;;;;;0.75;0.40;;;;;;;;;;4974056;28;20085;-79
2022/01/04 09:26:50;;;;;;;0.40;0.40;;;;;;;;;;4972972;28;20030;-79
2022/01/04 09:29:19;;;;;;;0.40;0.40;;;;;;;;;;4987284;28;20057;-79
2022/01/04 09:31:48;;;;;;;1.17;0.40;;;;;;;;;;4988119;28;20123;-79
2022/01/04 09:34:14;;;;;;;0.40;0.40;;;;;;;;;;4974550;28;20030;-79
2022/01/04 09:36:39;;;;;;;0.40;0.40;;;;;;;;;;4973800;28;20064;-79
2022/01/04 09:39:07;;;;;;;0.50;0.50;;;;;;;;;;4955647;28;20091;-79
2022/01/04 09:41:33;;;;;;;0.73;0.73;;;;;;;;;;4971613;28;20057;-79
2022/01/04 09:43:58;;;;;;;0.50;0.50;;;;;;;;;;4971910;28;20049;-79
2022/01/04 09:46:23;;;;;;;0.40;0.40;;;;;;;;;;4969723;28;20504;-79
2022/01/04 09:48:49;;;;;;;0.63;0.63;;;;;;;;;;4973060;28;20054;-79
2022/01/04 09:51:14;;;;;;;0.40;0.40;;;;;;;;;;4974967;28;20053;-79
2022/01/04 09:53:39;;;;;;;0.50;0.50;;;;;;;;;;4972785;28;20038;-79
2022/01/04 09:56:05;;;;;;;0.50;0.50;;;;;;;;;;4955290;28;20037;-79
2022/01/04 09:58:32;;;;;;;0.52;0.52;;;;;;;;;;4986538;28;20047;-78
2022/01/04 10:00:57;;;;;;;0.75;0.63;;;;;;;;;;4970545;28;20038;-78
2022/01/04 10:03:29;;;;;;;1.70;0.60;;;;;;;;;;4968504;28;20035;-78
2022/01/04 10:06:15;;;;;;;0.85;0.70;;;;;;;;;;4967319;28;20038;-78
2022/01/04 10:08:57;;;;;;;0.60;0.60;;;;;;;;;;4971159;28;20143;-78
2022/01/04 10:11:30;;;;;;;0.70;0.70;;;;;;;;;;4972233;28;20031;-79
2022/01/04 10:13:55;;;;;;;0.63;0.63;;;;;;;;;;4958445;28;20058;-77
2022/01/04 10:16:21;;;;;;;0.68;0.40;;;;;;;;;;4976702;28;20109;-78
2022/01/04 10:18:47;;;;;;;0.60;0.60;;;;;;;;;;4980020;28;20424;-78
2022/01/04 10:21:14;;;;;;;1.40;0.52;;;;;;;;;;4976878;28;20711;-79
2022/01/04 10:23:55;;;;;;;0.60;0.60;;;;;;;;;;4975138;28;20692;-77
2022/01/04 10:26:37;;;;;;;0.60;0.60;;;;;;;;;;4973101;28;20105;-78
2022/01/04 10:29:22;;;;;;;0.68;0.65;;;;;;;;;;4972357;28;20034;-78
2022/01/04 10:31:47;;;;;;;;;;;;;;;;;;4974018;28;20043;-79
2022/01/04 10:34:12;;;;;;;1.15;0.80;;;;;;;;;;4980035;28;19926;-78
2022/01/04 10:36:38;;;;;;;0.85;0.80;;;;;;;;;;4988769;28;20027;-78
2022/01/04 10:39:08;;;;;;;0.82;0.70;;;;;;;;;;4976714;28;20437;-78
2022/01/04 10:41:33;;;;;;;1.20;0.80;;;;;;;;;;4974550;28;20078;-77
2022/01/04 10:44:06;;;;;;;0.85;0.85;;;;;;;;;;4984660;28;20572;-78
2022/01/04 10:46:31;;;;;;;0.60;0.60;;;;;;;;;;4965849;28;20046;-78
2022/01/04 10:48:56;;;;;;;1.00;0.82;;;;;;;;;;4977028;28;20092;-79
2022/01/04 10:51:22;;;;;;;0.90;0.90;;;;;;;;;;4974184;28;20041;-77
2022/01/04 10:53:52;;;;;;;0.70;0.70;;;;;;;;;;4974725;28;20078;-79
2022/01/04 10:56:32;;;;;;;0.70;0.70;;;;;;;;;;4978646;28;20183;-78
2022/01/04 10:59:08;;;;;;;0.82;0.82;;;;;;;;;;4961008;28;20110;-78
2022/01/04 11:01:41;;;;;;;0.73;0.63;;;;;;;;;;4975453;28;20462;-79
2022/01/04 11:04:14;;;;;;;1.13;0.70;;;;;;;;;;4973301;28;20038;-78
2022/01/04 11:06:39;;;;;;;0.70;0.70;;;;;;;;;;4985052;28;20029;-79
2022/01/04 11:09:05;;;;;;;1.55;0.73;;;;;;;;;;4972692;28;20046;-76
2022/01/04 11:11:30;;;;;;;0.65;0.65;;;;;;;;;;4971953;28;20061;-78
2022/01/04 11:13:57;;;;;;;1.38;0.70;;;;;;;;;;4989161;28;20038;-78
2022/01/04 11:16:24;;;;;;;0.95;0.70;;;;;;;;;;4969775;28;20042;-77
2022/01/04 11:18:52;;;;;;;0.93;0.80;;;;;;;;;;4971775;28;20427;-78
2022/01/04 11:21:32;;;;;;;0.70;0.70;;;;;;;;;;4986852;28;20499;-76
2022/01/04 11:23:57;;;;;;;0.70;0.70;;;;;;;;;;4974523;28;20042;-78
2022/01/04 11:26:22;;;;;;;2.05;0.70;;;;;;;;;;4959253;28;20093;-79
2022/01/04 11:28:49;;;;;;;0.60;0.60;;;;;;;;;;4977586;28;20026;-77
2022/01/04 11:31:15;;;;;;;0.93;0.80;;;;;;;;;;4976016;28;20049;-77
2022/01/04 11:34:11;;;;;;;1.85;0.85;;;;;;;;;;4974360;28;20038;-77
2022/01/04 11:36:42;;;;;;;1.10;0.80;;;;;;;;;;4963887;28;20026;-79
2022/01/04 11:39:26;;;;;;;0.60;0.60;;;;;;;;;;4973246;28;20041;-77
2022/01/04 11:41:52;;;;;;;0.70;0.70;;;;;;;;;;4970092;28;20022;-80
2022/01/04 11:44:21;;;;;;;0.70;0.70;;;;;;;;;;4987960;28;20494;-77
2022/01/04 11:47:15;;;;;;;0.70;0.70;;;;;;;;;;4983226;28;20085;-78
2022/01/04 11:50:10;;;;;;;1.00;0.90;;;;;;;;;;4971010;28;20057;-79
2022/01/04 11:52:41;;;;;;;0.60;0.60;;;;;;;;;;4971499;28;20033;-77
2022/01/04 11:55:34;;;;;;;0.60;0.60;;;;;;;;;;4969082;28;20086;-76
2022/01/04 11:58:09;;;;;;;1.20;0.88;;;;;;;;;;4986898;28;20031;-77
2022/01/04 12:00:39;;;;;;;0.90;0.90;;;;;;;;;;4968007;28;20410;-76
2022/01/04 12:03:10;;;;;;;0.70;0.70;;;;;;;;;;4973241;28;20033;-77
2022/01/04 12:05:37;;;;;;;0.80;0.80;;;;;;;;;;4980211;28;20466;-77
2022/01/04 12:08:19;;;;;;;0.70;0.70;;;;;;;;;;4954673;28;20061;-76
2022/01/04 12:10:44;;;;;;;0.68;0.68;;;;;;;;;;4958698;28;20038;-78
2022/01/04 12:13:11;;;;;;;4.20;0.75;;;;;;;;;;4953257;28;20042;-77
2022/01/04 12:15:46;;;;;;;0.63;0.63;;;;;;;;;;4986676;28;20034;-76
2022/01/04 12:18:24;;;;;;;3.80;0.80;;;;;;;;;;4969433;28;20038;-77
2022/01/04 12:20:50;;;;;;;0.80;0.80;;;;;;;;;;4972949;28;20041;-77
2022/01/04 12:23:46;;;;;;;0.98;0.88;;;;;;;;;;4958610;28;20041;-78
2022/01/04 12:26:12;;;;;;;0.80;0.80;;;;;;;;;;4969229;28;20053;-77
2022/01/04 12:28:56;;;;;;;0.70;0.70;;;;;;;;;;4967433;28;20145;-79
2022/01/04 12:31:24;;;;;;;0.73;0.73;;;;;;;;;;4970360;28;20319;-76
2022/01/04 12:33:53;;;;;;;0.60;0.60;;;;;;;;;;4968327;28;20244;-77
2022/01/04 12:36:38;;;;;;;0.80;0.77;;;;;;;;;;4965779;28;21343;-79
2022/01/04 12:39:14;;;;;;;0.77;0.70;;;;;;;;;;4970141;28;20030;-76
2022/01/04 12:41:41;;;;;;;0.80;0.80;;;;;;;;;;4957376;28;20109;-78
2022/01/04 12:44:06;;;;;;;0.70;0.70;;;;;;;;;;4985680;28;20049;-77
2022/01/04 12:46:36;;;;;;;0.90;0.90;;;;;;;;;;4967384;28;20497;-76
2022/01/04 12:49:19;;;;;;;0.70;0.70;;;;;;;;;;4972491;28;20050;-77
2022/01/04 12:51:47;;;;;;;0.82;0.82;;;;;;;;;;4968613;28;20030;-78
2022/01/04 12:54:15;;;;;;;0.70;0.70;;;;;;;;;;4984003;28;20035;-77
2022/01/04 12:56:44;;;;;;;0.60;0.60;;;;;;;;;;4968314;28;20071;-77
2022/01/04 12:59:30;;;;;;;1.38;0.90;;;;;;;;;;4970955;28;20756;-78
2022/01/04 13:02:17;;;;;;;0.90;0.90;;;;;;;;;;4969975;28;20035;-77
2022/01/04 13:04:48;;;;;;;0.82;0.82;;;;;;;;;;4970656;28;20046;-78
2022/01/04 13:07:18;;;;;;;1.42;0.93;;;;;;;;;;4982503;28;20331;-77
2022/01/04 13:09:51;;;;;;;0.85;0.85;;;;;;;;;;4961054;28;20142;-77
2022/01/04 13:12:20;;;;;;;0.80;0.80;;;;;;;;;;4970212;28;20030;-77
2022/01/04 13:14:45;;;;;;;0.80;0.80;;;;;;;;;;4986322;28;20041;-77
2022/01/04 13:17:11;;;;;;;0.75;0.75;;;;;;;;;;4969688;28;20031;-77
2022/01/04 13:19:41;;;;;;;0.82;0.82;;;;;;;;;;4986887;28;20023;-77
2022/01/04 13:22:08;;;;;;;1.08;1.00;;;;;;;;;;4969505;28;20020;-79
2022/01/04 13:24:36;;;;;;;1.10;0.95;;;;;;;;;;4966403;28;20485;-78
2022/01/04 13:27:29;;;;;;;0.88;0.88;;;;;;;;;;4960958;28;20110;-77
2022/01/04 13:30:05;;;;;;;0.80;0.80;;;;;;;;;;4970654;28;20125;-78
2022/01/04 13:32:33;;;;;;;1.42;0.80;;;;;;;;;;4968533;28;20042;-77
2022/01/04 13:35:08;;;;;;;0.90;0.90;;;;;;;;;;4973865;28;20030;-77
2022/01/04 13:37:34;;;;;;;0.80;0.80;;;;;;;;;;4971235;28;20203;-77
2022/01/04 13:39:59;;;;;;;0.70;0.70;;;;;;;;;;4971625;28;20030;-77
2022/01/04 13:42:30;;;;;;;0.80;0.80;;;;;;;;;;4974723;28;20101;-77
2022/01/04 13:44:59;;;;;;;0.70;0.70;;;;;;;;;;4975870;28;20037;-77
2022/01/04 13:47:25;;;;;;;0.80;0.80;;;;;;;;;;4959591;28;20457;-76
2022/01/04 13:49:50;;;;;;;1.08;0.98;;;;;;;;;;4979685;28;20041;-77
2022/01/04 13:52:19;;;;;;;0.98;0.98;;;;;;;;;;4980361;28;20026;-78
2022/01/04 13:54:44;;;;;;;1.05;0.80;;;;;;;;;;4969486;28;20520;-77
2022/01/04 13:57:15;;;;;;;0.88;0.88;;;;;;;;;;4979081;28;20105;-77
2022/01/04 13:59:40;;;;;;;1.17;0.80;;;;;;;;;;4990418;28;20040;-76
2022/01/04 14:02:23;;;;;;;0.82;0.82;;;;;;;;;;4976292;28;20133;-81
2022/01/04 14:04:48;;;;;;;0.70;0.70;;;;;;;;;;4963225;28;20029;-76
2022/01/04 14:07:14;;;;;;;1.00;0.88;;;;;;;;;;4972945;28;21518;-76
2022/01/04 14:09:43;;;;;;;0.75;0.70;;;;;;;;;;4975848;28;20038;-77
2022/01/04 14:12:12;;;;;;;0.80;0.80;;;;;;;;;;4976614;28;20026;-78
2022/01/04 14:14:41;;;;;;;2.45;0.82;;;;;;;;;;4980716;28;20043;-77
2022/01/04 14:17:06;;;;;;;1.00;0.90;;;;;;;;;;4975112;28;20097;-77
2022/01/04 14:19:52;;;;;;;0.88;0.88;;;;;;;;;;4992426;28;20570;-77
2022/01/04 14:22:24;;;;;;;0.88;0.88;;;;;;;;;;4975723;28;20084;-76
2022/01/04 14:24:51;;;;;;;2.85;2.03;;;;;;;;;;4978532;28;20038;-77
2022/01/04 14:27:29;;;;;;;1.00;1.00;;;;;;;;;;4975568;28;20054;-79
2022/01/04 14:29:55;;;;;;;0.90;0.90;;;;;;;;;;4972193;28;20038;-76
2022/01/04 14:32:28;;;;;;;1.00;1.00;;;;;;;;;;4972933;28;20040;-76
2022/01/04 14:34:59;;;;;;;1.10;1.08;;;;;;;;;;4963611;28;20038;-77
2022/01/04 14:37:24;;;;;;;1.77;1.60;;;;;;;;;;4976156;28;20053;-76
2022/01/04 14:39:51;;;;;;;1.58;1.20;;;;;;;;;;4975720;28;20505;-76
2022/01/04 14:42:16;;;;;;;1.30;1.20;;;;;;;;;;4991517;28;20033;-76
2022/01/04 14:44:41;;;;;;;3.00;1.30;;;;;;;;;;4975846;28;20114;-76
2022/01/04 14:47:07;;;;;;;1.42;1.30;;;;;;;;;;4974826;28;20117;-75
2022/01/04 14:49:33;;;;;;;2.50;1.60;;;;;;;;;;4992883;28;20035;-76
2022/01/04 14:51:58;;;;;;;1.85;1.50;;;;;;;;;;4974312;28;20497;-77
2022/01/04 14:54:23;;;;;;;2.33;1.38;;;;;;;;;;4973809;28;20063;-77